sensor_id;sensor_type;location;lat;lon;timestamp;temperature;humidity
6252;DHT22;3159;52.414;9.784;2022-08-25T00:01:35;23.20;99.90
6252;DHT22;3159;52.414;9.784;2022-08-25T00:04:05;23.00;99.90
6252;DHT22;3159;52.414;9.784;2022-08-25T00:06:32;23.00;99.90
6252;DHT22;3159;52.414;9.784;2022-08-25T00:08:59;23.00;99.90
6252;DHT22;3159;52.414;9.784;2022-08-25T00:11:28;23.10;99.90
6252;DHT22;3159;52.414;9.784;2022-08-25T00:13:58;23.10;99.90
6252;DHT22;3159;52.414;9.784;2022-08-25T00:16:26;23.10;99.90
6252;DHT22;3159;52.414;9.784;2022-08-25T00:19:01;23.00;99.90
6252;DHT22;3159;52.414;9.784;2022-08-25T00:21:28;23.00;99.90
6252;DHT22;3159;52.414;9.784;2022-08-25T00:23:56;23.00;99.90
6252;DHT22;3159;52.414;9.784;2022-08-25T00:26:24;23.00;99.90
6252;DHT22;3159;52.414;9.784;2022-08-25T00:28:52;22.90;99.90
6252;DHT22;3159;52.414;9.784;2022-08-25T00:31:20;22.90;99.90
6252;DHT22;3159;52.414;9.784;2022-08-25T00:33:49;22.80;99.90
6252;DHT22;3159;52.414;9.784;2022-08-25T00:36:18;22.70;99.90
6252;DHT22;3159;52.414;9.784;2022-08-25T00:38:46;22.50;99.90
6252;DHT22;3159;52.414;9.784;2022-08-25T00:41:17;22.30;99.90
6252;DHT22;3159;52.414;9.784;2022-08-25T00:43:49;22.20;99.90
6252;DHT22;3159;52.414;9.784;2022-08-25T00:46:20;22.30;99.90
6252;DHT22;3159;52.414;9.784;2022-08-25T00:48:51;22.40;99.90
6252;DHT22;3159;52.414;9.784;2022-08-25T00:51:27;22.40;99.90
6252;DHT22;3159;52.414;9.784;2022-08-25T00:53:55;22.30;99.90
6252;DHT22;3159;52.414;9.784;2022-08-25T00:56:23;22.20;99.90
6252;DHT22;3159;52.414;9.784;2022-08-25T00:58:51;22.30;99.90
6252;DHT22;3159;52.414;9.784;2022-08-25T01:01:19;22.40;99.90
6252;DHT22;3159;52.414;9.784;2022-08-25T01:03:46;22.20;99.90
6252;DHT22;3159;52.414;9.784;2022-08-25T01:06:13;22.20;99.90
6252;DHT22;3159;52.414;9.784;2022-08-25T01:08:41;22.20;99.90
6252;DHT22;3159;52.414;9.784;2022-08-25T01:11:10;22.10;99.90
6252;DHT22;3159;52.414;9.784;2022-08-25T01:13:40;22.00;99.90
6252;DHT22;3159;52.414;9.784;2022-08-25T01:16:07;22.20;99.90
6252;DHT22;3159;52.414;9.784;2022-08-25T01:18:43;22.10;99.90
6252;DHT22;3159;52.414;9.784;2022-08-25T01:21:13;22.00;99.90
6252;DHT22;3159;52.414;9.784;2022-08-25T01:23:40;22.00;99.90
6252;DHT22;3159;52.414;9.784;2022-08-25T01:26:10;22.00;99.90
6252;DHT22;3159;52.414;9.784;2022-08-25T01:28:39;22.00;99.90
6252;DHT22;3159;52.414;9.784;2022-08-25T01:31:27;22.10;99.90
6252;DHT22;3159;52.414;9.784;2022-08-25T01:33:55;21.90;99.90
6252;DHT22;3159;52.414;9.784;2022-08-25T01:36:26;21.90;99.90
6252;DHT22;3159;52.414;9.784;2022-08-25T01:38:53;21.80;99.90
6252;DHT22;3159;52.414;9.784;2022-08-25T01:41:29;21.70;99.90
6252;DHT22;3159;52.414;9.784;2022-08-25T01:44:00;21.70;99.90
6252;DHT22;3159;52.414;9.784;2022-08-25T01:46:28;21.70;99.90
6252;DHT22;3159;52.414;9.784;2022-08-25T01:48:54;21.60;99.90
6252;DHT22;3159;52.414;9.784;2022-08-25T01:51:25;21.50;99.90
6252;DHT22;3159;52.414;9.784;2022-08-25T01:53:53;21.50;99.90
6252;DHT22;3159;52.414;9.784;2022-08-25T01:56:20;21.50;99.90
6252;DHT22;3159;52.414;9.784;2022-08-25T01:58:48;21.50;99.90
6252;DHT22;3159;52.414;9.784;2022-08-25T02:01:17;21.50;99.90
6252;DHT22;3159;52.414;9.784;2022-08-25T02:03:46;21.30;99.90
6252;DHT22;3159;52.414;9.784;2022-08-25T02:06:17;21.20;99.90
6252;DHT22;3159;52.414;9.784;2022-08-25T02:08:49;21.30;99.90
6252;DHT22;3159;52.414;9.784;2022-08-25T02:11:16;21.30;99.90
6252;DHT22;3159;52.414;9.784;2022-08-25T02:13:43;21.40;99.90
6252;DHT22;3159;52.414;9.784;2022-08-25T02:16:15;21.40;99.90
6252;DHT22;3159;52.414;9.784;2022-08-25T02:18:43;21.30;99.90
6252;DHT22;3159;52.414;9.784;2022-08-25T02:21:10;21.30;99.90
6252;DHT22;3159;52.414;9.784;2022-08-25T02:23:37;21.30;99.90
6252;DHT22;3159;52.414;9.784;2022-08-25T02:26:05;21.20;99.90
6252;DHT22;3159;52.414;9.784;2022-08-25T02:28:32;21.30;99.90
6252;DHT22;3159;52.414;9.784;2022-08-25T02:30:59;21.20;99.90
6252;DHT22;3159;52.414;9.784;2022-08-25T02:33:26;21.10;99.90
6252;DHT22;3159;52.414;9.784;2022-08-25T02:35:56;21.10;99.90
6252;DHT22;3159;52.414;9.784;2022-08-25T02:38:23;21.10;99.90
6252;DHT22;3159;52.414;9.784;2022-08-25T02:40:52;21.00;99.90
6252;DHT22;3159;52.414;9.784;2022-08-25T02:43:21;21.00;99.90
6252;DHT22;3159;52.414;9.784;2022-08-25T02:45:49;21.00;99.90
6252;DHT22;3159;52.414;9.784;2022-08-25T02:48:16;21.10;99.90
6252;DHT22;3159;52.414;9.784;2022-08-25T02:50:46;21.10;99.90
6252;DHT22;3159;52.414;9.784;2022-08-25T02:53:13;21.10;99.90
6252;DHT22;3159;52.414;9.784;2022-08-25T02:55:40;21.10;99.90
6252;DHT22;3159;52.414;9.784;2022-08-25T02:58:07;21.10;99.90
6252;DHT22;3159;52.414;9.784;2022-08-25T03:00:36;21.20;99.90
6252;DHT22;3159;52.414;9.784;2022-08-25T03:03:04;21.20;99.90
6252;DHT22;3159;52.414;9.784;2022-08-25T03:05:31;21.20;99.90
6252;DHT22;3159;52.414;9.784;2022-08-25T03:07:58;21.20;99.90
6252;DHT22;3159;52.414;9.784;2022-08-25T03:10:25;21.20;99.90
6252;DHT22;3159;52.414;9.784;2022-08-25T03:12:52;21.20;99.90
6252;DHT22;3159;52.414;9.784;2022-08-25T03:15:19;21.20;99.90
6252;DHT22;3159;52.414;9.784;2022-08-25T03:17:48;21.20;99.90
6252;DHT22;3159;52.414;9.784;2022-08-25T03:20:15;21.10;99.90
6252;DHT22;3159;52.414;9.784;2022-08-25T03:22:42;21.20;99.90
6252;DHT22;3159;52.414;9.784;2022-08-25T03:25:09;21.20;99.90
6252;DHT22;3159;52.414;9.784;2022-08-25T03:27:53;21.30;99.90
6252;DHT22;3159;52.414;9.784;2022-08-25T03:30:20;21.20;99.90
6252;DHT22;3159;52.414;9.784;2022-08-25T03:32:49;21.20;99.90
6252;DHT22;3159;52.414;9.784;2022-08-25T03:35:16;21.10;99.90
6252;DHT22;3159;52.414;9.784;2022-08-25T03:37:43;21.20;99.90
6252;DHT22;3159;52.414;9.784;2022-08-25T03:40:13;21.20;99.90
6252;DHT22;3159;52.414;9.784;2022-08-25T03:42:41;21.10;99.90
6252;DHT22;3159;52.414;9.784;2022-08-25T03:45:09;21.00;99.90
6252;DHT22;3159;52.414;9.784;2022-08-25T03:47:38;21.00;99.90
6252;DHT22;3159;52.414;9.784;2022-08-25T03:50:09;21.00;99.90
6252;DHT22;3159;52.414;9.784;2022-08-25T03:52:36;21.00;99.90
6252;DHT22;3159;52.414;9.784;2022-08-25T03:55:06;21.00;99.90
6252;DHT22;3159;52.414;9.784;2022-08-25T03:57:33;21.00;99.90
6252;DHT22;3159;52.414;9.784;2022-08-25T04:00:01;21.00;99.90
6252;DHT22;3159;52.414;9.784;2022-08-25T04:02:29;20.90;99.90
6252;DHT22;3159;52.414;9.784;2022-08-25T04:04:58;20.80;99.90
6252;DHT22;3159;52.414;9.784;2022-08-25T04:07:26;20.80;99.90
6252;DHT22;3159;52.414;9.784;2022-08-25T04:09:53;20.70;99.90
6252;DHT22;3159;52.414;9.784;2022-08-25T04:12:20;20.60;99.90
6252;DHT22;3159;52.414;9.784;2022-08-25T04:14:47;20.50;99.90
6252;DHT22;3159;52.414;9.784;2022-08-25T04:17:15;20.60;99.90
6252;DHT22;3159;52.414;9.784;2022-08-25T04:19:42;20.50;99.90
6252;DHT22;3159;52.414;9.784;2022-08-25T04:22:09;20.70;99.90
6252;DHT22;3159;52.414;9.784;2022-08-25T04:24:37;20.60;99.90
6252;DHT22;3159;52.414;9.784;2022-08-25T04:27:04;20.40;99.90
6252;DHT22;3159;52.414;9.784;2022-08-25T04:29:31;20.40;99.90
6252;DHT22;3159;52.414;9.784;2022-08-25T04:31:58;20.40;99.90
6252;DHT22;3159;52.414;9.784;2022-08-25T04:34:26;20.50;99.90
6252;DHT22;3159;52.414;9.784;2022-08-25T04:36:54;20.60;99.90
6252;DHT22;3159;52.414;9.784;2022-08-25T04:39:21;20.50;99.90
6252;DHT22;3159;52.414;9.784;2022-08-25T04:41:49;20.50;99.90
6252;DHT22;3159;52.414;9.784;2022-08-25T04:44:17;20.50;99.90
6252;DHT22;3159;52.414;9.784;2022-08-25T04:46:44;20.60;99.90
6252;DHT22;3159;52.414;9.784;2022-08-25T04:49:10;20.60;99.90
6252;DHT22;3159;52.414;9.784;2022-08-25T04:51:39;20.50;99.90
6252;DHT22;3159;52.414;9.784;2022-08-25T04:54:08;20.50;99.90
6252;DHT22;3159;52.414;9.784;2022-08-25T04:56:37;20.60;99.90
6252;DHT22;3159;52.414;9.784;2022-08-25T04:59:08;20.50;99.90
6252;DHT22;3159;52.414;9.784;2022-08-25T05:01:36;20.50;99.90
6252;DHT22;3159;52.414;9.784;2022-08-25T05:04:05;20.30;99.90
6252;DHT22;3159;52.414;9.784;2022-08-25T05:06:33;20.30;99.90
6252;DHT22;3159;52.414;9.784;2022-08-25T05:09:00;20.40;99.90
6252;DHT22;3159;52.414;9.784;2022-08-25T05:11:28;20.40;99.90
6252;DHT22;3159;52.414;9.784;2022-08-25T05:13:57;20.60;99.90
6252;DHT22;3159;52.414;9.784;2022-08-25T05:16:27;20.40;99.90
6252;DHT22;3159;52.414;9.784;2022-08-25T05:18:55;20.50;99.90
6252;DHT22;3159;52.414;9.784;2022-08-25T05:21:25;20.60;99.90
6252;DHT22;3159;52.414;9.784;2022-08-25T05:23:54;20.70;99.90
6252;DHT22;3159;52.414;9.784;2022-08-25T05:26:22;20.70;99.90
6252;DHT22;3159;52.414;9.784;2022-08-25T05:28:51;20.70;99.90
6252;DHT22;3159;52.414;9.784;2022-08-25T05:31:20;20.80;99.90
6252;DHT22;3159;52.414;9.784;2022-08-25T05:33:50;20.70;99.90
6252;DHT22;3159;52.414;9.784;2022-08-25T05:36:17;20.60;99.90
6252;DHT22;3159;52.414;9.784;2022-08-25T05:38:45;20.70;99.90
6252;DHT22;3159;52.414;9.784;2022-08-25T05:41:15;20.80;99.90
6252;DHT22;3159;52.414;9.784;2022-08-25T05:43:44;20.60;99.90
6252;DHT22;3159;52.414;9.784;2022-08-25T05:46:11;20.70;99.90
6252;DHT22;3159;52.414;9.784;2022-08-25T05:48:38;20.70;99.90
6252;DHT22;3159;52.414;9.784;2022-08-25T05:51:08;20.80;99.90
6252;DHT22;3159;52.414;9.784;2022-08-25T05:53:37;20.70;99.90
6252;DHT22;3159;52.414;9.784;2022-08-25T05:56:05;20.70;99.90
6252;DHT22;3159;52.414;9.784;2022-08-25T05:58:33;20.70;99.90
6252;DHT22;3159;52.414;9.784;2022-08-25T06:01:00;20.60;99.90
6252;DHT22;3159;52.414;9.784;2022-08-25T06:03:48;20.80;99.90
6252;DHT22;3159;52.414;9.784;2022-08-25T06:06:16;20.90;99.90
6252;DHT22;3159;52.414;9.784;2022-08-25T06:08:44;20.90;99.90
6252;DHT22;3159;52.414;9.784;2022-08-25T06:11:11;21.00;99.90
6252;DHT22;3159;52.414;9.784;2022-08-25T06:13:38;21.30;99.90
6252;DHT22;3159;52.414;9.784;2022-08-25T06:16:06;21.30;99.90
6252;DHT22;3159;52.414;9.784;2022-08-25T06:18:33;21.50;99.90
6252;DHT22;3159;52.414;9.784;2022-08-25T06:21:07;21.70;99.90
6252;DHT22;3159;52.414;9.784;2022-08-25T06:23:36;21.80;99.90
6252;DHT22;3159;52.414;9.784;2022-08-25T06:26:03;21.70;99.90
6252;DHT22;3159;52.414;9.784;2022-08-25T06:28:30;21.90;99.90
6252;DHT22;3159;52.414;9.784;2022-08-25T06:31:03;21.80;99.90
6252;DHT22;3159;52.414;9.784;2022-08-25T06:33:30;21.80;99.90
6252;DHT22;3159;52.414;9.784;2022-08-25T06:35:58;22.10;99.90
6252;DHT22;3159;52.414;9.784;2022-08-25T06:38:35;22.00;99.90
6252;DHT22;3159;52.414;9.784;2022-08-25T06:41:03;21.70;99.90
6252;DHT22;3159;52.414;9.784;2022-08-25T06:43:30;21.80;99.90
6252;DHT22;3159;52.414;9.784;2022-08-25T06:45:58;21.90;99.90
6252;DHT22;3159;52.414;9.784;2022-08-25T06:48:33;22.10;99.90
6252;DHT22;3159;52.414;9.784;2022-08-25T06:51:04;22.40;99.90
6252;DHT22;3159;52.414;9.784;2022-08-25T06:53:32;22.70;99.90
6252;DHT22;3159;52.414;9.784;2022-08-25T06:56:01;22.80;99.90
6252;DHT22;3159;52.414;9.784;2022-08-25T06:58:29;22.90;99.90
6252;DHT22;3159;52.414;9.784;2022-08-25T07:00:56;23.00;99.90
6252;DHT22;3159;52.414;9.784;2022-08-25T07:03:23;23.20;99.90
6252;DHT22;3159;52.414;9.784;2022-08-25T07:05:51;23.40;99.90
6252;DHT22;3159;52.414;9.784;2022-08-25T07:08:18;23.50;99.90
6252;DHT22;3159;52.414;9.784;2022-08-25T07:10:46;23.40;99.90
6252;DHT22;3159;52.414;9.784;2022-08-25T07:13:14;23.80;99.90
6252;DHT22;3159;52.414;9.784;2022-08-25T07:15:42;24.00;99.90
6252;DHT22;3159;52.414;9.784;2022-08-25T07:18:10;24.40;99.90
6252;DHT22;3159;52.414;9.784;2022-08-25T07:20:37;24.40;99.90
6252;DHT22;3159;52.414;9.784;2022-08-25T07:23:04;24.70;99.90
6252;DHT22;3159;52.414;9.784;2022-08-25T07:25:31;24.50;99.90
6252;DHT22;3159;52.414;9.784;2022-08-25T07:27:58;24.70;99.90
6252;DHT22;3159;52.414;9.784;2022-08-25T07:30:27;24.90;99.90
6252;DHT22;3159;52.414;9.784;2022-08-25T07:32:54;25.00;99.90
6252;DHT22;3159;52.414;9.784;2022-08-25T07:35:21;24.80;99.90
6252;DHT22;3159;52.414;9.784;2022-08-25T07:37:51;24.80;99.90
6252;DHT22;3159;52.414;9.784;2022-08-25T07:40:21;24.80;99.90
6252;DHT22;3159;52.414;9.784;2022-08-25T07:42:49;24.90;99.90
6252;DHT22;3159;52.414;9.784;2022-08-25T07:45:22;25.10;99.90
6252;DHT22;3159;52.414;9.784;2022-08-25T07:47:56;25.50;99.90
6252;DHT22;3159;52.414;9.784;2022-08-25T07:50:24;25.90;99.90
6252;DHT22;3159;52.414;9.784;2022-08-25T07:52:51;25.50;99.90
6252;DHT22;3159;52.414;9.784;2022-08-25T07:55:19;25.90;99.90
6252;DHT22;3159;52.414;9.784;2022-08-25T07:57:46;26.30;99.90
6252;DHT22;3159;52.414;9.784;2022-08-25T08:00:14;26.70;99.90
6252;DHT22;3159;52.414;9.784;2022-08-25T08:02:41;26.60;99.90
6252;DHT22;3159;52.414;9.784;2022-08-25T08:05:12;26.90;99.90
6252;DHT22;3159;52.414;9.784;2022-08-25T08:07:39;27.00;99.90
6252;DHT22;3159;52.414;9.784;2022-08-25T08:10:08;27.30;99.90
6252;DHT22;3159;52.414;9.784;2022-08-25T08:12:37;27.40;99.90
6252;DHT22;3159;52.414;9.784;2022-08-25T08:15:04;27.40;99.90
6252;DHT22;3159;52.414;9.784;2022-08-25T08:17:32;27.80;99.90
6252;DHT22;3159;52.414;9.784;2022-08-25T08:19:59;28.00;99.90
6252;DHT22;3159;52.414;9.784;2022-08-25T08:22:27;28.30;99.90
6252;DHT22;3159;52.414;9.784;2022-08-25T08:24:54;28.10;99.90
6252;DHT22;3159;52.414;9.784;2022-08-25T08:27:21;28.00;99.90
6252;DHT22;3159;52.414;9.784;2022-08-25T08:29:48;28.10;99.90
6252;DHT22;3159;52.414;9.784;2022-08-25T08:32:20;28.50;99.90
6252;DHT22;3159;52.414;9.784;2022-08-25T08:34:47;28.50;99.90
6252;DHT22;3159;52.414;9.784;2022-08-25T08:37:14;28.70;99.90
6252;DHT22;3159;52.414;9.784;2022-08-25T08:39:43;28.70;99.90
6252;DHT22;3159;52.414;9.784;2022-08-25T08:42:18;28.80;99.90
6252;DHT22;3159;52.414;9.784;2022-08-25T08:45:10;28.90;99.90
6252;DHT22;3159;52.414;9.784;2022-08-25T08:48:20;29.00;99.90
6252;DHT22;3159;52.414;9.784;2022-08-25T08:50:59;29.10;99.90
6252;DHT22;3159;52.414;9.784;2022-08-25T08:53:43;29.50;99.90
6252;DHT22;3159;52.414;9.784;2022-08-25T08:56:15;29.50;99.90
6252;DHT22;3159;52.414;9.784;2022-08-25T08:58:47;29.60;99.90
6252;DHT22;3159;52.414;9.784;2022-08-25T09:01:22;30.00;99.90
6252;DHT22;3159;52.414;9.784;2022-08-25T09:03:52;29.20;99.90
6252;DHT22;3159;52.414;9.784;2022-08-25T09:06:24;29.50;99.90
6252;DHT22;3159;52.414;9.784;2022-08-25T09:08:54;29.70;99.90
6252;DHT22;3159;52.414;9.784;2022-08-25T09:11:32;29.20;99.90
6252;DHT22;3159;52.414;9.784;2022-08-25T09:14:10;29.20;99.90
6252;DHT22;3159;52.414;9.784;2022-08-25T09:16:43;29.30;99.90
6252;DHT22;3159;52.414;9.784;2022-08-25T09:19:46;29.40;99.90
6252;DHT22;3159;52.414;9.784;2022-08-25T09:22:23;29.10;99.90
6252;DHT22;3159;52.414;9.784;2022-08-25T09:24:59;29.40;99.90
6252;DHT22;3159;52.414;9.784;2022-08-25T09:27:34;29.20;99.90
6252;DHT22;3159;52.414;9.784;2022-08-25T09:30:06;29.30;99.90
6252;DHT22;3159;52.414;9.784;2022-08-25T09:32:38;29.40;99.90
6252;DHT22;3159;52.414;9.784;2022-08-25T09:35:11;29.50;99.90
6252;DHT22;3159;52.414;9.784;2022-08-25T09:37:40;29.50;99.90
6252;DHT22;3159;52.414;9.784;2022-08-25T09:40:08;29.70;99.90
6252;DHT22;3159;52.414;9.784;2022-08-25T09:42:48;29.60;99.90
6252;DHT22;3159;52.414;9.784;2022-08-25T09:45:17;29.30;99.90
6252;DHT22;3159;52.414;9.784;2022-08-25T09:47:55;29.20;99.90
6252;DHT22;3159;52.414;9.784;2022-08-25T09:50:22;28.50;99.90
6252;DHT22;3159;52.414;9.784;2022-08-25T09:52:49;28.40;99.90
6252;DHT22;3159;52.414;9.784;2022-08-25T09:55:28;28.80;99.90
6252;DHT22;3159;52.414;9.784;2022-08-25T09:57:58;28.00;99.90
6252;DHT22;3159;52.414;9.784;2022-08-25T10:00:28;28.70;99.90
6252;DHT22;3159;52.414;9.784;2022-08-25T10:03:05;29.50;99.90
6252;DHT22;3159;52.414;9.784;2022-08-25T10:05:33;29.00;99.90
6252;DHT22;3159;52.414;9.784;2022-08-25T10:08:03;30.10;99.90
6252;DHT22;3159;52.414;9.784;2022-08-25T10:10:39;30.60;99.90
6252;DHT22;3159;52.414;9.784;2022-08-25T10:13:14;30.50;99.90
6252;DHT22;3159;52.414;9.784;2022-08-25T10:15:43;30.00;99.90
6252;DHT22;3159;52.414;9.784;2022-08-25T10:18:21;29.80;99.90
6252;DHT22;3159;52.414;9.784;2022-08-25T10:21:10;29.80;99.90
6252;DHT22;3159;52.414;9.784;2022-08-25T10:23:40;29.60;99.90
6252;DHT22;3159;52.414;9.784;2022-08-25T10:26:13;30.10;99.90
6252;DHT22;3159;52.414;9.784;2022-08-25T10:28:50;30.60;99.90
6252;DHT22;3159;52.414;9.784;2022-08-25T10:31:24;30.90;99.90
6252;DHT22;3159;52.414;9.784;2022-08-25T10:34:05;30.60;99.90
6252;DHT22;3159;52.414;9.784;2022-08-25T10:36:42;30.70;99.90
6252;DHT22;3159;52.414;9.784;2022-08-25T10:39:22;30.90;99.90
6252;DHT22;3159;52.414;9.784;2022-08-25T10:42:00;30.70;99.90
6252;DHT22;3159;52.414;9.784;2022-08-25T10:44:35;30.30;99.90
6252;DHT22;3159;52.414;9.784;2022-08-25T10:47:37;30.50;99.90
6252;DHT22;3159;52.414;9.784;2022-08-25T10:50:13;30.40;99.90
6252;DHT22;3159;52.414;9.784;2022-08-25T10:52:56;29.90;99.90
6252;DHT22;3159;52.414;9.784;2022-08-25T10:55:29;29.50;99.90
6252;DHT22;3159;52.414;9.784;2022-08-25T10:58:03;30.70;99.90
6252;DHT22;3159;52.414;9.784;2022-08-25T11:00:39;30.70;99.90
6252;DHT22;3159;52.414;9.784;2022-08-25T11:03:17;30.60;99.90
6252;DHT22;3159;52.414;9.784;2022-08-25T11:05:50;31.00;99.90
6252;DHT22;3159;52.414;9.784;2022-08-25T11:08:31;31.30;99.90
6252;DHT22;3159;52.414;9.784;2022-08-25T11:11:04;31.60;99.90
6252;DHT22;3159;52.414;9.784;2022-08-25T11:13:40;30.70;99.90
6252;DHT22;3159;52.414;9.784;2022-08-25T11:16:13;30.90;99.90
6252;DHT22;3159;52.414;9.784;2022-08-25T11:18:46;30.70;99.90
6252;DHT22;3159;52.414;9.784;2022-08-25T11:21:19;31.30;99.90
6252;DHT22;3159;52.414;9.784;2022-08-25T11:23:54;31.20;99.90
6252;DHT22;3159;52.414;9.784;2022-08-25T11:26:27;31.30;99.90
6252;DHT22;3159;52.414;9.784;2022-08-25T11:29:02;30.90;99.90
6252;DHT22;3159;52.414;9.784;2022-08-25T11:31:37;31.30;99.90
6252;DHT22;3159;52.414;9.784;2022-08-25T11:34:07;31.60;99.90
6252;DHT22;3159;52.414;9.784;2022-08-25T11:36:37;31.60;99.90
6252;DHT22;3159;52.414;9.784;2022-08-25T11:39:14;31.50;99.90
6252;DHT22;3159;52.414;9.784;2022-08-25T11:41:51;31.80;99.90
6252;DHT22;3159;52.414;9.784;2022-08-25T11:44:43;31.80;99.90
6252;DHT22;3159;52.414;9.784;2022-08-25T11:47:43;31.80;99.90
6252;DHT22;3159;52.414;9.784;2022-08-25T11:50:29;32.10;99.90
6252;DHT22;3159;52.414;9.784;2022-08-25T11:52:59;31.50;99.90
6252;DHT22;3159;52.414;9.784;2022-08-25T11:55:47;31.20;99.90
6252;DHT22;3159;52.414;9.784;2022-08-25T11:58:29;30.40;99.90
6252;DHT22;3159;52.414;9.784;2022-08-25T12:00:57;30.70;99.90
6252;DHT22;3159;52.414;9.784;2022-08-25T12:03:51;31.30;99.90
6252;DHT22;3159;52.414;9.784;2022-08-25T12:06:22;31.00;99.90
6252;DHT22;3159;52.414;9.784;2022-08-25T12:08:53;30.60;99.90
6252;DHT22;3159;52.414;9.784;2022-08-25T12:11:48;30.00;99.90
6252;DHT22;3159;52.414;9.784;2022-08-25T12:14:37;30.30;99.90
6252;DHT22;3159;52.414;9.784;2022-08-25T12:17:18;30.60;99.90
6252;DHT22;3159;52.414;9.784;2022-08-25T12:19:56;31.20;99.90
6252;DHT22;3159;52.414;9.784;2022-08-25T12:22:43;30.90;99.90
6252;DHT22;3159;52.414;9.784;2022-08-25T12:25:44;31.20;99.90
6252;DHT22;3159;52.414;9.784;2022-08-25T12:28:35;30.50;99.90
6252;DHT22;3159;52.414;9.784;2022-08-25T12:31:15;31.20;99.90
6252;DHT22;3159;52.414;9.784;2022-08-25T12:33:56;31.00;99.90
6252;DHT22;3159;52.414;9.784;2022-08-25T12:36:32;30.80;99.90
6252;DHT22;3159;52.414;9.784;2022-08-25T12:39:16;31.20;99.90
6252;DHT22;3159;52.414;9.784;2022-08-25T12:41:53;31.00;99.90
6252;DHT22;3159;52.414;9.784;2022-08-25T12:44:40;31.00;99.90
6252;DHT22;3159;52.414;9.784;2022-08-25T12:47:26;31.00;99.90
6252;DHT22;3159;52.414;9.784;2022-08-25T12:50:26;31.00;99.90
6252;DHT22;3159;52.414;9.784;2022-08-25T12:52:55;31.70;99.90
6252;DHT22;3159;52.414;9.784;2022-08-25T12:55:26;32.30;99.90
6252;DHT22;3159;52.414;9.784;2022-08-25T12:57:55;31.90;99.90
6252;DHT22;3159;52.414;9.784;2022-08-25T13:00:27;31.40;99.90
6252;DHT22;3159;52.414;9.784;2022-08-25T13:06:08;31.70;99.90
6252;DHT22;3159;52.414;9.784;2022-08-25T13:11:50;31.10;99.90
6252;DHT22;3159;52.414;9.784;2022-08-25T13:14:21;31.40;99.90
6252;DHT22;3159;52.414;9.784;2022-08-25T13:16:53;31.70;99.90
6252;DHT22;3159;52.414;9.784;2022-08-25T13:19:21;31.00;99.90
6252;DHT22;3159;52.414;9.784;2022-08-25T13:21:48;31.10;99.90
6252;DHT22;3159;52.414;9.784;2022-08-25T13:24:21;31.50;99.90
6252;DHT22;3159;52.414;9.784;2022-08-25T13:26:53;31.20;99.90
6252;DHT22;3159;52.414;9.784;2022-08-25T13:29:24;30.70;99.90
6252;DHT22;3159;52.414;9.784;2022-08-25T13:31:56;30.80;99.90
6252;DHT22;3159;52.414;9.784;2022-08-25T13:34:25;30.00;99.90
6252;DHT22;3159;52.414;9.784;2022-08-25T13:36:53;29.90;99.90
6252;DHT22;3159;52.414;9.784;2022-08-25T13:39:38;29.80;99.90
6252;DHT22;3159;52.414;9.784;2022-08-25T13:42:14;30.30;99.90
6252;DHT22;3159;52.414;9.784;2022-08-25T13:44:41;30.30;99.90
6252;DHT22;3159;52.414;9.784;2022-08-25T13:47:11;30.80;99.90
6252;DHT22;3159;52.414;9.784;2022-08-25T13:49:40;30.80;99.90
6252;DHT22;3159;52.414;9.784;2022-08-25T13:52:15;30.70;99.90
6252;DHT22;3159;52.414;9.784;2022-08-25T13:54:46;31.30;99.90
6252;DHT22;3159;52.414;9.784;2022-08-25T13:57:18;31.50;99.90
6252;DHT22;3159;52.414;9.784;2022-08-25T13:59:49;31.50;99.90
6252;DHT22;3159;52.414;9.784;2022-08-25T14:02:41;31.20;99.90
6252;DHT22;3159;52.414;9.784;2022-08-25T14:05:10;31.70;99.90
6252;DHT22;3159;52.414;9.784;2022-08-25T14:07:38;31.50;99.90
6252;DHT22;3159;52.414;9.784;2022-08-25T14:10:08;31.20;99.90
6252;DHT22;3159;52.414;9.784;2022-08-25T14:12:39;30.70;99.90
6252;DHT22;3159;52.414;9.784;2022-08-25T14:15:11;30.50;99.90
6252;DHT22;3159;52.414;9.784;2022-08-25T14:17:41;30.30;99.90
6252;DHT22;3159;52.414;9.784;2022-08-25T14:20:21;30.40;99.90
6252;DHT22;3159;52.414;9.784;2022-08-25T14:22:55;30.30;99.90
6252;DHT22;3159;52.414;9.784;2022-08-25T14:25:23;30.60;99.90
6252;DHT22;3159;52.414;9.784;2022-08-25T14:27:55;30.80;99.90
6252;DHT22;3159;52.414;9.784;2022-08-25T14:30:23;30.20;99.90
6252;DHT22;3159;52.414;9.784;2022-08-25T14:32:50;30.40;99.90
6252;DHT22;3159;52.414;9.784;2022-08-25T14:35:17;30.70;99.90
6252;DHT22;3159;52.414;9.784;2022-08-25T14:37:45;30.80;99.90
6252;DHT22;3159;52.414;9.784;2022-08-25T14:40:14;30.70;99.90
6252;DHT22;3159;52.414;9.784;2022-08-25T14:42:45;30.40;99.90
6252;DHT22;3159;52.414;9.784;2022-08-25T14:45:13;30.70;99.90
6252;DHT22;3159;52.414;9.784;2022-08-25T14:47:41;30.90;99.90
6252;DHT22;3159;52.414;9.784;2022-08-25T14:50:09;30.60;99.90
6252;DHT22;3159;52.414;9.784;2022-08-25T14:52:36;30.40;99.90
6252;DHT22;3159;52.414;9.784;2022-08-25T14:55:03;30.70;99.90
6252;DHT22;3159;52.414;9.784;2022-08-25T14:57:31;30.80;99.90
6252;DHT22;3159;52.414;9.784;2022-08-25T14:59:58;30.90;99.90
6252;DHT22;3159;52.414;9.784;2022-08-25T15:02:27;30.70;99.90
6252;DHT22;3159;52.414;9.784;2022-08-25T15:04:57;30.70;99.90
6252;DHT22;3159;52.414;9.784;2022-08-25T15:07:27;30.30;99.90
6252;DHT22;3159;52.414;9.784;2022-08-25T15:10:12;30.60;99.90
6252;DHT22;3159;52.414;9.784;2022-08-25T15:12:39;30.40;99.90
6252;DHT22;3159;52.414;9.784;2022-08-25T15:15:06;30.50;99.90
6252;DHT22;3159;52.414;9.784;2022-08-25T15:17:36;30.40;99.90
6252;DHT22;3159;52.414;9.784;2022-08-25T15:20:05;30.30;99.90
6252;DHT22;3159;52.414;9.784;2022-08-25T15:22:32;30.20;99.90
6252;DHT22;3159;52.414;9.784;2022-08-25T15:24:59;30.20;99.90
6252;DHT22;3159;52.414;9.784;2022-08-25T15:27:26;30.10;99.90
6252;DHT22;3159;52.414;9.784;2022-08-25T15:29:53;30.00;99.90
6252;DHT22;3159;52.414;9.784;2022-08-25T15:32:20;30.20;99.90
6252;DHT22;3159;52.414;9.784;2022-08-25T15:34:50;30.30;99.90
6252;DHT22;3159;52.414;9.784;2022-08-25T15:37:17;30.20;99.90
6252;DHT22;3159;52.414;9.784;2022-08-25T15:39:44;30.20;99.90
6252;DHT22;3159;52.414;9.784;2022-08-25T15:42:13;29.90;99.90
6252;DHT22;3159;52.414;9.784;2022-08-25T15:44:41;30.10;99.90
6252;DHT22;3159;52.414;9.784;2022-08-25T15:47:09;30.00;99.90
6252;DHT22;3159;52.414;9.784;2022-08-25T15:49:36;29.60;99.90
6252;DHT22;3159;52.414;9.784;2022-08-25T15:52:04;29.50;99.90
6252;DHT22;3159;52.414;9.784;2022-08-25T15:54:32;29.30;99.90
6252;DHT22;3159;52.414;9.784;2022-08-25T15:56:59;29.40;99.90
6252;DHT22;3159;52.414;9.784;2022-08-25T15:59:26;29.30;99.90
6252;DHT22;3159;52.414;9.784;2022-08-25T16:01:54;29.10;99.90
6252;DHT22;3159;52.414;9.784;2022-08-25T16:04:21;29.00;99.90
6252;DHT22;3159;52.414;9.784;2022-08-25T16:06:49;29.20;99.90
6252;DHT22;3159;52.414;9.784;2022-08-25T16:09:17;29.30;99.90
6252;DHT22;3159;52.414;9.784;2022-08-25T16:11:44;29.20;99.90
6252;DHT22;3159;52.414;9.784;2022-08-25T16:14:11;29.00;99.90
6252;DHT22;3159;52.414;9.784;2022-08-25T16:16:39;28.90;99.90
6252;DHT22;3159;52.414;9.784;2022-08-25T16:19:07;28.90;99.90
6252;DHT22;3159;52.414;9.784;2022-08-25T16:21:34;29.00;99.90
6252;DHT22;3159;52.414;9.784;2022-08-25T16:24:04;29.10;99.90
6252;DHT22;3159;52.414;9.784;2022-08-25T16:26:34;29.20;99.90
6252;DHT22;3159;52.414;9.784;2022-08-25T16:29:02;29.10;99.90
6252;DHT22;3159;52.414;9.784;2022-08-25T16:31:29;29.10;99.90
6252;DHT22;3159;52.414;9.784;2022-08-25T16:33:56;28.80;99.90